Time,TemperatureF,DewpointF,PressureIn,WindDirection,WindDirectionDegrees,WindSpeedMPH,WindSpeedGustMPH,Humidity,HourlyPrecipIn,Conditions,Clouds,dailyrainin,SoftwareType,DateUTC
2013-01-28 00:00:00,38.7,29.4,30.62,SE,144,0.0,0.0,69,0.00,,,0.00,Wunderground v.1.15,2013-01-28 05:00:00,
2013-01-28 00:02:00,38.6,29.3,30.63,SE,144,0.0,0.0,69,0.00,,,0.00,Wunderground v.1.15,2013-01-28 05:02:00,
2013-01-28 00:06:00,38.6,29.3,30.62,SE,144,0.0,0.0,69,0.00,,,0.00,Wunderground v.1.15,2013-01-28 05:06:00,
2013-01-28 00:08:00,38.7,29.4,30.62,SE,144,0.0,0.0,69,0.00,,,0.00,Wunderground v.1.15,2013-01-28 05:08:00,
2013-01-28 00:14:00,38.6,29.3,30.62,SE,144,0.0,0.0,69,0.00,,,0.00,Wunderground v.1.15,2013-01-28 05:14:00,
2013-01-28 00:19:00,38.7,29.0,30.62,SSW,201,0.0,1.0,68,0.00,,,0.00,Wunderground v.1.15,2013-01-28 05:19:00,
2013-01-28 00:25:00,38.7,29.4,30.63,SSW,207,0.0,0.0,69,0.00,,,0.00,Wunderground v.1.15,2013-01-28 05:25:00,
2013-01-28 00:31:00,38.7,29.8,30.62,West,281,0.0,0.0,70,0.00,,,0.00,Wunderground v.1.15,2013-01-28 05:31:00,
2013-01-28 00:37:00,38.7,29.4,30.62,West,281,0.0,0.0,69,0.00,,,0.00,Wunderground v.1.15,2013-01-28 05:37:00,
2013-01-28 00:43:00,38.7,29.4,30.62,West,281,0.0,0.0,69,0.00,,,0.00,Wunderground v.1.15,2013-01-28 05:43:00,
2013-01-28 00:51:00,38.7,29.8,30.62,West,281,0.0,0.0,70,0.00,,,0.00,Wunderground v.1.15,2013-01-28 05:51:00,
2013-01-28 00:56:00,38.7,29.8,30.61,West,281,0.0,0.0,70,0.00,,,0.00,Wunderground v.1.15,2013-01-28 05:56:00,
2013-01-28 01:02:00,38.7,29.4,30.60,West,281,0.0,0.0,69,0.00,,,0.00,Wunderground v.1.15,2013-01-28 06:02:00,
2013-01-28 01:08:00,38.7,29.4,30.59,West,281,0.0,0.0,69,0.00,,,0.00,Wunderground v.1.15,2013-01-28 06:08:00,
2013-01-28 01:13:00,38.6,29.3,30.59,West,281,0.0,0.0,69,0.00,,,0.00,Wunderground v.1.15,2013-01-28 06:13:00,
2013-01-28 01:19:00,38.4,29.1,30.59,West,281,0.0,0.0,69,0.00,,,0.00,Wunderground v.1.15,2013-01-28 06:19:00,
2013-01-28 01:24:00,38.3,29.7,30.59,West,281,0.0,0.0,71,0.00,,,0.00,Wunderground v.1.15,2013-01-28 06:24:00,
2013-01-28 01:29:00,38.2,30.0,30.59,West,281,0.0,0.0,72,0.00,,,0.00,Wunderground v.1.15,2013-01-28 06:29:00,
2013-01-28 01:35:00,38.0,29.8,30.58,West,281,0.0,0.0,72,0.00,,,0.00,Wunderground v.1.15,2013-01-28 06:35:00,
2013-01-28 01:41:00,37.5,30.0,30.59,West,281,0.0,0.0,74,0.00,,,0.00,Wunderground v.1.15,2013-01-28 06:41:00,
2013-01-28 01:51:00,36.9,29.7,30.58,West,281,0.0,0.0,75,0.00,,,0.00,Wunderground v.1.15,2013-01-28 06:51:00,
2013-01-28 01:56:00,36.7,29.8,30.59,West,281,0.0,0.0,76,0.00,,,0.00,Wunderground v.1.15,2013-01-28 06:56:00,
2013-01-28 02:02:00,36.5,30.0,30.60,West,281,0.0,0.0,77,0.00,,,0.00,Wunderground v.1.15,2013-01-28 07:02:00,
2013-01-28 02:08:00,36.4,29.9,30.59,West,281,0.0,0.0,77,0.00,,,0.00,Wunderground v.1.15,2013-01-28 07:08:00,
2013-01-28 02:14:00,36.4,30.2,30.60,West,281,0.0,0.0,78,0.00,,,0.00,Wunderground v.1.15,2013-01-28 07:14:00,
2013-01-28 02:19:00,36.4,30.2,30.60,West,281,0.0,0.0,78,0.00,,,0.00,Wunderground v.1.15,2013-01-28 07:19:00,
2013-01-28 02:24:00,36.4,30.2,30.60,West,281,0.0,0.0,78,0.00,,,0.00,Wunderground v.1.15,2013-01-28 07:24:00,
2013-01-28 02:29:00,36.5,30.6,30.60,West,281,0.0,0.0,79,0.00,,,0.00,Wunderground v.1.15,2013-01-28 07:29:00,
2013-01-28 02:35:00,36.6,30.4,30.61,West,281,0.0,0.0,78,0.00,,,0.00,Wunderground v.1.15,2013-01-28 07:35:00,
2013-01-28 02:41:00,36.7,30.5,30.60,West,281,0.0,0.0,78,0.00,,,0.00,Wunderground v.1.15,2013-01-28 07:41:00,
2013-01-28 02:51:00,36.9,30.4,30.60,West,281,0.0,0.0,77,0.00,,,0.00,Wunderground v.1.15,2013-01-28 07:51:00,
2013-01-28 02:56:00,37.0,30.1,30.59,West,281,0.0,1.0,76,0.00,,,0.00,Wunderground v.1.15,2013-01-28 07:56:00,
2013-01-28 03:02:00,37.2,30.0,30.60,West,281,0.0,1.0,75,0.00,,,0.00,Wunderground v.1.15,2013-01-28 08:02:00,
2013-01-28 03:08:00,37.3,30.1,30.59,West,281,0.0,1.0,75,0.00,,,0.00,Wunderground v.1.15,2013-01-28 08:08:00,
2013-01-28 03:13:00,37.3,30.1,30.59,West,281,0.0,0.0,75,0.00,,,0.00,Wunderground v.1.15,2013-01-28 08:13:00,
2013-01-28 03:18:00,37.4,30.5,30.58,West,281,0.0,0.0,76,0.00,,,0.00,Wunderground v.1.15,2013-01-28 08:18:00,
2013-01-28 03:24:00,37.4,30.2,30.58,West,281,0.0,0.0,75,0.00,,,0.00,Wunderground v.1.15,2013-01-28 08:24:00,
2013-01-28 03:30:00,37.5,30.3,30.59,West,281,0.0,0.0,75,0.00,,,0.00,Wunderground v.1.15,2013-01-28 08:30:00,
2013-01-28 03:35:00,37.5,30.3,30.59,West,281,0.0,0.0,75,0.00,,,0.00,Wunderground v.1.15,2013-01-28 08:35:00,
2013-01-28 03:41:00,37.6,30.4,30.58,West,281,0.0,0.0,75,0.00,,,0.00,Wunderground v.1.15,2013-01-28 08:41:00,
2013-01-28 03:51:00,37.7,30.8,30.58,West,281,0.0,0.0,76,0.00,,,0.00,Wunderground v.1.15,2013-01-28 08:51:00,
2013-01-28 03:56:00,37.7,30.8,30.58,West,281,0.0,1.0,76,0.00,,,0.00,Wunderground v.1.15,2013-01-28 08:56:00,
2013-01-28 04:02:00,37.7,30.2,30.57,West,281,0.0,0.0,74,0.00,,,0.00,Wunderground v.1.15,2013-01-28 09:02:00,
2013-01-28 04:08:00,37.8,30.3,30.57,West,281,0.0,0.0,74,0.00,,,0.00,Wunderground v.1.15,2013-01-28 09:08:00,
2013-01-28 04:13:00,37.9,30.7,30.57,West,281,0.0,0.0,75,0.00,,,0.00,Wunderground v.1.15,2013-01-28 09:13:00,
2013-01-28 04:18:00,37.9,31.0,30.57,West,281,0.0,0.0,76,0.00,,,0.00,Wunderground v.1.15,2013-01-28 09:18:00,
2013-01-28 04:23:00,37.9,30.7,30.58,West,281,0.0,0.0,75,0.00,,,0.00,Wunderground v.1.15,2013-01-28 09:23:00,
2013-01-28 04:29:00,38.0,30.8,30.58,West,281,0.0,0.0,75,0.00,,,0.00,Wunderground v.1.15,2013-01-28 09:29:00,
2013-01-28 04:34:00,38.0,31.1,30.58,West,281,0.0,0.0,76,0.00,,,0.00,Wunderground v.1.15,2013-01-28 09:34:00,
2013-01-28 04:39:00,38.0,31.1,30.58,West,281,0.0,0.0,76,0.00,,,0.00,Wunderground v.1.15,2013-01-28 09:39:00,
2013-01-28 04:44:00,38.0,31.1,30.60,West,281,0.0,0.0,76,0.00,,,0.00,Wunderground v.1.15,2013-01-28 09:44:00,
2013-01-28 04:51:00,38.1,30.9,30.59,West,281,0.0,0.0,75,0.00,,,0.00,Wunderground v.1.15,2013-01-28 09:51:00,
2013-01-28 04:56:00,38.1,31.2,30.58,West,281,0.0,0.0,76,0.00,,,0.00,Wunderground v.1.15,2013-01-28 09:56:00,
2013-01-28 05:01:00,38.1,31.2,30.58,West,281,0.0,0.0,76,0.00,,,0.00,Wunderground v.1.15,2013-01-28 10:01:00,
2013-01-28 05:06:00,38.1,31.2,30.59,West,281,0.0,0.0,76,0.00,,,0.00,Wunderground v.1.15,2013-01-28 10:06:00,
2013-01-28 05:11:00,38.2,31.0,30.59,West,281,0.0,0.0,75,0.00,,,0.00,Wunderground v.1.15,2013-01-28 10:11:00,
2013-01-28 05:17:00,38.2,30.0,30.59,NW,320,1.0,3.0,72,0.00,,,0.00,Wunderground v.1.15,2013-01-28 10:17:00,
2013-01-28 05:23:00,38.3,30.4,30.58,NW,320,1.0,1.0,73,0.00,,,0.00,Wunderground v.1.15,2013-01-28 10:23:00,
2013-01-28 05:29:00,38.3,30.1,30.58,NNW,327,0.0,2.0,72,0.00,,,0.00,Wunderground v.1.15,2013-01-28 10:29:00,
2013-01-28 05:34:00,38.3,30.4,30.58,NNW,327,0.0,2.0,73,0.00,,,0.00,Wunderground v.1.15,2013-01-28 10:34:00,
2013-01-28 05:40:00,38.3,30.4,30.58,NNW,327,0.0,0.0,73,0.00,,,0.00,Wunderground v.1.15,2013-01-28 10:40:00,
2013-01-28 05:51:00,38.4,31.2,30.58,NNW,327,0.0,0.0,75,0.00,,,0.00,Wunderground v.1.15,2013-01-28 10:51:00,
2013-01-28 05:56:00,38.4,31.2,30.58,NNW,327,0.0,0.0,75,0.00,,,0.00,Wunderground v.1.15,2013-01-28 10:56:00,
2013-01-28 06:02:00,38.5,31.3,30.58,NNW,327,0.0,0.0,75,0.00,,,0.00,Wunderground v.1.15,2013-01-28 11:02:00,
2013-01-28 06:07:00,38.5,30.9,30.58,NNW,327,0.0,0.0,74,0.00,,,0.00,Wunderground v.1.15,2013-01-28 11:07:00,
2013-01-28 06:12:00,38.6,31.7,30.57,NNW,327,0.0,0.0,76,0.00,,,0.00,Wunderground v.1.15,2013-01-28 11:12:00,
2013-01-28 06:17:00,38.6,31.7,30.57,NNW,327,0.0,0.0,76,0.00,,,0.00,Wunderground v.1.15,2013-01-28 11:17:00,
2013-01-28 06:23:00,38.8,31.9,30.57,NNW,327,0.0,0.0,76,0.00,,,0.00,Wunderground v.1.15,2013-01-28 11:23:00,
2013-01-28 06:28:00,39.0,32.4,30.57,NNW,327,0.0,0.0,77,0.00,,,0.00,Wunderground v.1.15,2013-01-28 11:28:00,
2013-01-28 06:34:00,39.1,32.2,30.57,NNW,327,0.0,0.0,76,0.00,,,0.00,Wunderground v.1.15,2013-01-28 11:34:00,
2013-01-28 06:40:00,39.2,32.6,30.57,NNW,327,0.0,0.0,77,0.00,,,0.00,Wunderground v.1.15,2013-01-28 11:40:00,
2013-01-28 06:45:00,39.3,32.7,30.57,NNW,327,0.0,0.0,77,0.00,,,0.00,Wunderground v.1.15,2013-01-28 11:45:00,
2013-01-28 06:51:00,39.3,32.4,30.57,NNW,327,0.0,0.0,76,0.00,,,0.00,Wunderground v.1.15,2013-01-28 11:51:00,
2013-01-28 06:56:00,39.3,32.7,30.57,NNW,327,0.0,0.0,77,0.00,,,0.00,Wunderground v.1.15,2013-01-28 11:56:00,
2013-01-28 07:01:00,39.4,32.8,30.57,NNW,327,0.0,0.0,77,0.00,,,0.00,Wunderground v.1.15,2013-01-28 12:01:00,
2013-01-28 07:07:00,39.5,33.2,30.56,NNW,327,0.0,0.0,78,0.00,,,0.00,Wunderground v.1.15,2013-01-28 12:07:00,
2013-01-28 07:13:00,39.7,33.7,30.56,NNW,327,0.0,0.0,79,0.00,,,0.00,Wunderground v.1.15,2013-01-28 12:13:00,
2013-01-28 07:19:00,39.7,33.7,30.56,NNW,327,0.0,0.0,79,0.00,,,0.00,Wunderground v.1.15,2013-01-28 12:19:00,
2013-01-28 07:24:00,39.7,33.7,30.57,NNW,327,0.0,0.0,79,0.00,,,0.00,Wunderground v.1.15,2013-01-28 12:24:00,
2013-01-28 07:29:00,39.7,33.7,30.57,NNW,327,0.0,0.0,79,0.00,,,0.00,Wunderground v.1.15,2013-01-28 12:29:00,
2013-01-28 07:35:00,40.0,35.6,30.57,NNW,327,0.0,1.0,84,0.00,,,0.00,Wunderground v.1.15,2013-01-28 12:35:00,
2013-01-28 07:40:00,40.3,35.8,30.57,NNW,327,0.0,0.0,84,0.00,,,0.00,Wunderground v.1.15,2013-01-28 12:40:00,
2013-01-28 07:51:00,40.3,35.2,30.56,NNW,327,0.0,0.0,82,0.00,,,0.00,Wunderground v.1.15,2013-01-28 12:51:00,
2013-01-28 07:56:00,40.3,35.5,30.56,NNW,327,0.0,0.0,83,0.00,,,0.00,Wunderground v.1.15,2013-01-28 12:56:00,
2013-01-28 08:01:00,40.3,35.8,30.57,NNW,327,0.0,0.0,84,0.00,,,0.00,Wunderground v.1.15,2013-01-28 13:01:00,
2013-01-28 08:07:00,40.4,36.2,30.56,NNW,327,0.0,0.0,85,0.00,,,0.00,Wunderground v.1.15,2013-01-28 13:07:00,
2013-01-28 08:13:00,40.6,36.4,30.57,NNW,327,0.0,0.0,85,0.00,,,0.00,Wunderground v.1.15,2013-01-28 13:13:00,
2013-01-28 08:19:00,40.7,36.5,30.57,NNW,327,0.0,1.0,85,0.00,,,0.00,Wunderground v.1.15,2013-01-28 13:19:00,
2013-01-28 08:25:00,40.8,36.6,30.57,NNW,327,0.0,0.0,85,0.00,,,0.00,Wunderground v.1.15,2013-01-28 13:25:00,
2013-01-28 08:31:00,40.8,36.6,30.57,NNW,327,0.0,0.0,85,0.00,,,0.00,Wunderground v.1.15,2013-01-28 13:31:00,
2013-01-28 08:36:00,40.7,36.5,30.57,NNW,327,0.0,0.0,85,0.00,,,0.00,Wunderground v.1.15,2013-01-28 13:36:00,
2013-01-28 08:41:00,40.7,36.5,30.57,NNW,327,0.0,0.0,85,0.00,,,0.00,Wunderground v.1.15,2013-01-28 13:41:00,
2013-01-28 08:51:00,41.0,37.4,30.56,NNW,327,0.0,0.0,87,0.00,,,0.00,Wunderground v.1.15,2013-01-28 13:51:00,
2013-01-28 08:56:00,41.3,38.0,30.56,NNW,327,0.0,0.0,88,0.00,,,0.00,Wunderground v.1.15,2013-01-28 13:56:00,
2013-01-28 09:01:00,41.7,39.0,30.56,NNW,327,0.0,0.0,90,0.00,,,0.00,Wunderground v.1.15,2013-01-28 14:01:00,
2013-01-28 09:07:00,42.0,39.0,30.56,NNW,327,0.0,0.0,89,0.00,,,0.00,Wunderground v.1.15,2013-01-28 14:07:00,
2013-01-28 09:13:00,42.2,39.5,30.56,NNW,327,0.0,0.0,90,0.00,,,0.00,Wunderground v.1.15,2013-01-28 14:13:00,
2013-01-28 09:19:00,42.5,39.5,30.56,NNW,327,0.0,0.0,89,0.00,,,0.00,Wunderground v.1.15,2013-01-28 14:19:00,
2013-01-28 09:24:00,42.7,39.7,30.56,NNW,327,0.0,0.0,89,0.00,,,0.00,Wunderground v.1.15,2013-01-28 14:24:00,
2013-01-28 09:30:00,42.9,39.6,30.55,NNW,327,0.0,0.0,88,0.00,,,0.00,Wunderground v.1.15,2013-01-28 14:30:00,
2013-01-28 09:35:00,43.1,39.8,30.55,NNW,327,0.0,0.0,88,0.00,,,0.00,Wunderground v.1.15,2013-01-28 14:35:00,
2013-01-28 09:40:00,43.3,39.7,30.55,NNW,327,0.0,0.0,87,0.00,,,0.00,Wunderground v.1.15,2013-01-28 14:40:00,
2013-01-28 09:51:00,43.8,40.2,30.54,NNW,327,0.0,0.0,87,0.00,,,0.00,Wunderground v.1.15,2013-01-28 14:51:00,
2013-01-28 09:56:00,44.1,41.1,30.54,NNW,327,0.0,1.0,89,0.00,,,0.00,Wunderground v.1.15,2013-01-28 14:56:00,
2013-01-28 10:01:00,44.5,41.5,30.55,NNW,327,0.0,0.0,89,0.00,,,0.00,Wunderground v.1.15,2013-01-28 15:01:00,
2013-01-28 10:06:00,44.7,41.1,30.55,NNW,327,0.0,0.0,87,0.00,,,0.00,Wunderground v.1.15,2013-01-28 15:06:00,
2013-01-28 10:11:00,44.8,40.9,30.54,NNW,327,0.0,0.0,86,0.00,,,0.00,Wunderground v.1.15,2013-01-28 15:11:00,
2013-01-28 10:17:00,44.9,41.6,30.54,NNW,327,0.0,0.0,88,0.00,,,0.00,Wunderground v.1.15,2013-01-28 15:17:00,
2013-01-28 10:23:00,45.2,42.7,30.55,NNW,327,0.0,0.0,91,0.00,,,0.00,Wunderground v.1.15,2013-01-28 15:23:00,
2013-01-28 10:28:00,45.1,41.5,30.55,NNW,327,0.0,0.0,87,0.00,,,0.00,Wunderground v.1.15,2013-01-28 15:28:00,
2013-01-28 10:33:00,45.0,41.4,30.55,NNW,327,0.0,0.0,87,0.00,,,0.00,Wunderground v.1.15,2013-01-28 15:33:00,
2013-01-28 10:38:00,44.9,41.6,30.54,NNW,327,0.0,0.0,88,0.00,,,0.00,Wunderground v.1.15,2013-01-28 15:38:00,
2013-01-28 10:44:00,45.0,42.5,30.54,NNW,327,0.0,0.0,91,0.00,,,0.00,Wunderground v.1.15,2013-01-28 15:44:00,
2013-01-28 10:51:00,45.1,42.3,30.55,NNW,327,0.0,0.0,90,0.00,,,0.00,Wunderground v.1.15,2013-01-28 15:51:00,
2013-01-28 10:56:00,45.2,42.2,30.54,NNW,327,0.0,0.0,89,0.00,,,0.00,Wunderground v.1.15,2013-01-28 15:56:00,
2013-01-28 11:01:00,45.1,42.1,30.55,NNW,327,0.0,0.0,89,0.00,,,0.00,Wunderground v.1.15,2013-01-28 16:01:00,
2013-01-28 11:07:00,44.9,41.3,30.54,NNW,327,0.0,1.0,87,0.00,,,0.00,Wunderground v.1.15,2013-01-28 16:07:00,
2013-01-28 11:13:00,44.8,41.2,30.54,NNW,327,0.0,0.0,87,0.00,,,0.00,Wunderground v.1.15,2013-01-28 16:13:00,
2013-01-28 11:18:00,44.7,41.4,30.54,NNW,327,0.0,0.0,88,0.00,,,0.00,Wunderground v.1.15,2013-01-28 16:18:00,
2013-01-28 11:24:00,44.7,41.1,30.53,NNW,327,0.0,0.0,87,0.00,,,0.00,Wunderground v.1.15,2013-01-28 16:24:00,
2013-01-28 11:29:00,44.8,41.2,30.53,NW,321,0.0,1.0,87,0.00,,,0.00,Wunderground v.1.15,2013-01-28 16:29:00,
2013-01-28 11:35:00,44.8,41.2,30.52,NW,321,0.0,1.0,87,0.00,,,0.00,Wunderground v.1.15,2013-01-28 16:35:00,
2013-01-28 11:40:00,44.9,41.3,30.52,NW,321,0.0,0.0,87,0.00,,,0.00,Wunderground v.1.15,2013-01-28 16:40:00,
2013-01-28 11:51:00,44.9,41.0,30.52,SE,134,0.0,1.0,86,0.00,,,0.00,Wunderground v.1.15,2013-01-28 16:51:00,
2013-01-28 11:56:00,44.9,40.7,30.52,ESE,111,0.0,1.0,85,0.00,,,0.00,Wunderground v.1.15,2013-01-28 16:56:00,
2013-01-28 12:02:00,44.8,40.6,30.52,ESE,121,0.0,0.0,85,0.00,,,0.00,Wunderground v.1.15,2013-01-28 17:02:00,
2013-01-28 12:07:00,44.9,41.0,30.50,ESE,121,0.0,0.0,86,0.00,,,0.00,Wunderground v.1.15,2013-01-28 17:07:00,
2013-01-28 12:13:00,45.1,41.5,30.50,ESE,121,0.0,0.0,87,0.00,,,0.00,Wunderground v.1.15,2013-01-28 17:13:00,
2013-01-28 12:19:00,45.3,42.0,30.50,ESE,121,0.0,1.0,88,0.00,,,0.00,Wunderground v.1.15,2013-01-28 17:19:00,
2013-01-28 12:24:00,45.5,41.9,30.50,ESE,121,0.0,0.0,87,0.00,,,0.00,Wunderground v.1.15,2013-01-28 17:24:00,
2013-01-28 12:29:00,45.6,41.4,30.49,ESE,121,0.0,2.0,85,0.00,,,0.00,Wunderground v.1.15,2013-01-28 17:29:00,
2013-01-28 12:35:00,45.8,41.2,30.48,SE,142,1.0,1.0,84,0.00,,,0.00,Wunderground v.1.15,2013-01-28 17:35:00,
2013-01-28 12:41:00,45.9,41.0,30.48,ESE,109,1.0,2.0,83,0.00,,,0.00,Wunderground v.1.15,2013-01-28 17:41:00,
2013-01-28 12:51:00,46.4,41.5,30.47,ESE,121,0.0,0.0,83,0.00,,,0.00,Wunderground v.1.15,2013-01-28 17:51:00,
2013-01-28 12:56:00,46.6,41.7,30.47,ESE,121,0.0,3.0,83,0.00,,,0.00,Wunderground v.1.15,2013-01-28 17:56:00,
2013-01-28 13:02:00,47.2,43.2,30.46,ESE,121,0.0,0.0,86,0.00,,,0.00,Wunderground v.1.15,2013-01-28 18:02:00,
2013-01-28 13:07:00,47.8,44.1,30.46,ESE,121,0.0,2.0,87,0.00,,,0.00,Wunderground v.1.15,2013-01-28 18:07:00,
2013-01-28 13:13:00,48.5,44.2,30.45,SE,126,0.0,1.0,85,0.00,,,0.00,Wunderground v.1.15,2013-01-28 18:13:00,
2013-01-28 13:19:00,48.9,44.3,30.45,SE,126,0.0,1.0,84,0.00,,,0.00,Wunderground v.1.15,2013-01-28 18:19:00,
2013-01-28 13:24:00,49.4,45.4,30.45,NE,50,0.0,1.0,86,0.00,,,0.00,Wunderground v.1.15,2013-01-28 18:24:00,
2013-01-28 13:30:00,49.9,46.2,30.44,NNW,346,0.0,0.0,87,0.00,,,0.00,Wunderground v.1.15,2013-01-28 18:30:00,
2013-01-28 13:35:00,50.3,46.6,30.43,NNW,346,0.0,1.0,87,0.00,,,0.00,Wunderground v.1.15,2013-01-28 18:35:00,
2013-01-28 13:41:00,50.4,44.8,30.43,ESE,111,1.0,2.0,81,0.00,,,0.00,Wunderground v.1.15,2013-01-28 18:41:00,
2013-01-28 13:51:00,50.3,44.4,30.42,WNW,290,0.0,0.0,80,0.00,,,0.00,Wunderground v.1.15,2013-01-28 18:51:00,
2013-01-28 13:56:00,50.2,44.6,30.41,WNW,289,0.0,1.0,81,0.00,,,0.00,Wunderground v.1.15,2013-01-28 18:56:00,
2013-01-28 14:01:00,50.2,44.9,30.41,WNW,290,0.0,0.0,82,0.00,,,0.00,Wunderground v.1.15,2013-01-28 19:01:00,
2013-01-28 14:06:00,50.3,45.3,30.40,SSE,159,0.0,0.0,83,0.00,,,0.00,Wunderground v.1.15,2013-01-28 19:06:00,
2013-01-28 14:12:00,50.6,45.9,30.40,NNE,15,0.0,1.0,84,0.00,,,0.00,Wunderground v.1.15,2013-01-28 19:12:00,
2013-01-28 14:17:00,50.9,45.9,30.40,NNE,32,1.0,2.0,83,0.00,,,0.00,Wunderground v.1.15,2013-01-28 19:17:00,
2013-01-28 14:23:00,50.7,45.4,30.39,SE,129,1.0,2.0,82,0.00,,,0.00,Wunderground v.1.15,2013-01-28 19:23:00,
2013-01-28 14:29:00,50.5,45.2,30.39,ENE,68,1.0,2.0,82,0.00,,,0.00,Wunderground v.1.15,2013-01-28 19:29:00,
2013-01-28 14:35:00,50.5,45.5,30.39,ENE,68,1.0,1.0,83,0.00,,,0.00,Wunderground v.1.15,2013-01-28 19:35:00,
2013-01-28 14:41:00,50.8,46.1,30.39,ENE,68,0.0,0.0,84,0.00,,,0.00,Wunderground v.1.15,2013-01-28 19:41:00,
2013-01-28 14:51:00,51.5,47.5,30.39,ENE,69,1.0,1.0,86,0.00,,,0.00,Wunderground v.1.15,2013-01-28 19:51:00,
2013-01-28 14:56:00,51.8,48.1,30.39,ENE,71,1.0,3.0,87,0.00,,,0.00,Wunderground v.1.15,2013-01-28 19:56:00,
2013-01-28 15:02:00,51.9,48.2,30.38,ENE,72,1.0,2.0,87,0.00,,,0.00,Wunderground v.1.15,2013-01-28 20:02:00,
2013-01-28 15:08:00,51.7,48.3,30.38,East,86,1.0,3.0,88,0.00,,,0.00,Wunderground v.1.15,2013-01-28 20:08:00,
2013-01-28 15:14:00,51.6,48.2,30.38,NE,42,1.0,2.0,88,0.00,,,0.00,Wunderground v.1.15,2013-01-28 20:14:00,
2013-01-28 15:19:00,51.5,48.1,30.38,NE,42,1.0,2.0,88,0.00,,,0.00,Wunderground v.1.15,2013-01-28 20:19:00,
2013-01-28 15:25:00,51.4,47.0,30.38,ESE,119,1.0,2.0,85,0.00,,,0.00,Wunderground v.1.15,2013-01-28 20:25:00,
2013-01-28 15:31:00,50.9,45.9,30.38,SE,142,1.0,1.0,83,0.00,,,0.00,Wunderground v.1.15,2013-01-28 20:31:00,
2013-01-28 15:36:00,50.6,45.9,30.38,SE,141,1.0,2.0,84,0.00,,,0.00,Wunderground v.1.15,2013-01-28 20:36:00,
2013-01-28 15:41:00,50.3,45.3,30.38,SE,142,1.0,1.0,83,0.00,,,0.00,Wunderground v.1.15,2013-01-28 20:41:00,
2013-01-28 15:51:00,50.0,44.7,30.38,SE,146,0.0,0.0,82,0.00,,,0.00,Wunderground v.1.15,2013-01-28 20:51:00,
2013-01-28 15:56:00,49.9,44.6,30.38,SE,146,0.0,3.0,82,0.00,,,0.00,Wunderground v.1.15,2013-01-28 20:56:00,
2013-01-28 16:02:00,49.8,44.5,30.38,SE,146,0.0,0.0,82,0.00,,,0.00,Wunderground v.1.15,2013-01-28 21:02:00,
2013-01-28 16:08:00,49.6,44.3,30.38,SE,146,0.0,1.0,82,0.00,,,0.00,Wunderground v.1.15,2013-01-28 21:08:00,
2013-01-28 16:14:00,49.5,44.2,30.37,SE,146,0.0,0.0,82,0.00,,,0.00,Wunderground v.1.15,2013-01-28 21:14:00,
2013-01-28 16:19:00,49.4,44.5,30.38,SE,146,0.0,0.0,83,0.00,,,0.00,Wunderground v.1.15,2013-01-28 21:19:00,
2013-01-28 16:24:00,49.4,44.5,30.37,SE,146,0.0,0.0,83,0.00,,,0.00,Wunderground v.1.15,2013-01-28 21:24:00,
2013-01-28 16:30:00,49.4,44.5,30.37,SE,146,0.0,0.0,83,0.00,,,0.00,Wunderground v.1.15,2013-01-28 21:30:00,
2013-01-28 16:35:00,49.6,45.0,30.37,SE,146,0.0,0.0,84,0.00,,,0.00,Wunderground v.1.15,2013-01-28 21:35:00,
2013-01-28 16:40:00,49.9,45.6,30.36,SE,146,0.0,0.0,85,0.00,,,0.00,Wunderground v.1.15,2013-01-28 21:40:00,
2013-01-28 16:45:00,50.2,46.2,30.36,SE,138,0.0,0.0,86,0.00,,,0.00,Wunderground v.1.15,2013-01-28 21:45:00,
2013-01-28 16:51:00,50.7,47.3,30.36,NE,55,0.0,0.0,88,0.00,,,0.00,Wunderground v.1.15,2013-01-28 21:51:00,
2013-01-28 16:56:00,51.0,47.6,30.36,NE,55,0.0,1.0,88,0.00,,,0.00,Wunderground v.1.15,2013-01-28 21:56:00,
2013-01-28 17:01:00,51.1,47.4,30.36,NE,55,0.0,0.0,87,0.00,,,0.00,Wunderground v.1.15,2013-01-28 22:01:00,
2013-01-28 17:06:00,51.2,47.5,30.36,NE,55,0.0,0.0,87,0.00,,,0.00,Wunderground v.1.15,2013-01-28 22:06:00,
2013-01-28 17:12:00,51.1,47.1,30.36,NE,55,0.0,0.0,86,0.00,,,0.00,Wunderground v.1.15,2013-01-28 22:12:00,
2013-01-28 17:17:00,50.8,46.1,30.36,NE,55,0.0,0.0,84,0.00,,,0.00,Wunderground v.1.15,2013-01-28 22:17:00,
2013-01-28 17:23:00,50.5,45.5,30.36,NE,55,0.0,0.0,83,0.00,,,0.00,Wunderground v.1.15,2013-01-28 22:23:00,
2013-01-28 17:28:00,50.0,44.7,30.36,NE,55,0.0,0.0,82,0.00,,,0.00,Wunderground v.1.15,2013-01-28 22:28:00,
2013-01-28 17:33:00,49.6,44.3,30.36,NE,55,0.0,0.0,82,0.00,,,0.00,Wunderground v.1.15,2013-01-28 22:33:00,
2013-01-28 17:39:00,49.1,43.8,30.36,NE,55,0.0,0.0,82,0.00,,,0.00,Wunderground v.1.15,2013-01-28 22:39:00,
2013-01-28 17:45:00,48.7,43.8,30.36,NE,55,0.0,0.0,83,0.00,,,0.00,Wunderground v.1.15,2013-01-28 22:45:00,
2013-01-28 17:51:00,48.3,43.7,30.36,NE,55,0.0,0.0,84,0.00,,,0.00,Wunderground v.1.15,2013-01-28 22:51:00,
2013-01-28 17:56:00,47.9,43.3,30.36,NE,55,0.0,1.0,84,0.00,,,0.00,Wunderground v.1.15,2013-01-28 22:56:00,
2013-01-28 18:01:00,47.4,43.1,30.36,NE,55,0.0,0.0,85,0.00,,,0.00,Wunderground v.1.15,2013-01-28 23:01:00,
2013-01-28 18:07:00,47.0,42.7,30.37,NE,55,0.0,0.0,85,0.00,,,0.00,Wunderground v.1.15,2013-01-28 23:07:00,
2013-01-28 18:13:00,46.7,42.7,30.37,NE,55,0.0,0.0,86,0.00,,,0.00,Wunderground v.1.15,2013-01-28 23:13:00,
2013-01-28 18:19:00,46.2,42.5,30.37,NE,55,0.0,0.0,87,0.00,,,0.00,Wunderground v.1.15,2013-01-28 23:19:00,
2013-01-28 18:24:00,46.0,42.3,30.37,NE,55,0.0,0.0,87,0.00,,,0.00,Wunderground v.1.15,2013-01-28 23:24:00,
2013-01-28 18:29:00,45.8,42.2,30.37,NE,55,0.0,0.0,87,0.00,,,0.00,Wunderground v.1.15,2013-01-28 23:29:00,
2013-01-28 18:35:00,45.6,42.3,30.37,NE,55,0.0,0.0,88,0.00,,,0.00,Wunderground v.1.15,2013-01-28 23:35:00,
2013-01-28 18:41:00,45.5,42.2,30.37,NE,55,0.0,0.0,88,0.00,,,0.00,Wunderground v.1.15,2013-01-28 23:41:00,
2013-01-28 18:51:00,45.5,42.4,30.37,NE,55,0.0,0.0,89,0.00,,,0.00,Wunderground v.1.15,2013-01-28 23:51:00,
2013-01-28 18:56:00,45.5,42.4,30.36,NE,55,0.0,0.0,89,0.00,,,0.00,Wunderground v.1.15,2013-01-28 23:56:00,
2013-01-28 19:02:00,45.6,42.5,30.36,NE,55,0.0,0.0,89,0.00,,,0.00,Wunderground v.1.15,2013-01-29 00:02:00,
2013-01-28 19:07:00,45.7,42.6,30.37,NE,55,0.0,0.0,89,0.00,,,0.00,Wunderground v.1.15,2013-01-29 00:07:00,
2013-01-28 19:12:00,45.8,42.7,30.37,NE,55,0.0,0.0,89,0.00,,,0.00,Wunderground v.1.15,2013-01-29 00:12:00,
2013-01-28 19:18:00,45.8,43.0,30.37,NE,55,0.0,0.0,90,0.00,,,0.00,Wunderground v.1.15,2013-01-29 00:18:00,
2013-01-28 19:23:00,45.9,42.8,30.36,NE,55,0.0,0.0,89,0.00,,,0.00,Wunderground v.1.15,2013-01-29 00:23:00,
2013-01-28 19:29:00,46.0,43.2,30.37,NE,55,0.0,0.0,90,0.00,,,0.00,Wunderground v.1.15,2013-01-29 00:29:00,
2013-01-28 19:35:00,46.1,43.3,30.36,NE,55,0.0,0.0,90,0.00,,,0.00,Wunderground v.1.15,2013-01-29 00:35:00,
2013-01-28 19:41:00,46.1,43.3,30.36,NE,55,0.0,0.0,90,0.00,,,0.00,Wunderground v.1.15,2013-01-29 00:41:00,
2013-01-28 19:51:00,46.3,43.2,30.36,NE,55,0.0,0.0,89,0.00,,,0.00,Wunderground v.1.15,2013-01-29 00:51:00,
2013-01-28 19:56:00,46.3,43.2,30.36,NE,55,0.0,0.0,89,0.00,,,0.00,Wunderground v.1.15,2013-01-29 00:56:00,
2013-01-28 20:02:00,46.4,43.3,30.36,NE,55,0.0,0.0,89,0.00,,,0.00,Wunderground v.1.15,2013-01-29 01:02:00,
2013-01-28 20:08:00,46.4,43.3,30.36,NE,55,0.0,0.0,89,0.00,,,0.00,Wunderground v.1.15,2013-01-29 01:08:00,
2013-01-28 20:13:00,46.5,43.7,30.36,NE,55,0.0,0.0,90,0.00,,,0.00,Wunderground v.1.15,2013-01-29 01:13:00,
2013-01-28 20:18:00,46.6,43.8,30.36,NE,55,0.0,0.0,90,0.00,,,0.00,Wunderground v.1.15,2013-01-29 01:18:00,
2013-01-28 20:23:00,46.7,43.9,30.36,NE,55,0.0,0.0,90,0.00,,,0.00,Wunderground v.1.15,2013-01-29 01:23:00,
2013-01-28 20:29:00,46.5,43.4,30.36,NE,55,0.0,0.0,89,0.00,,,0.00,Wunderground v.1.15,2013-01-29 01:29:00,
2013-01-28 20:35:00,46.3,43.2,30.36,NE,55,0.0,0.0,89,0.00,,,0.00,Wunderground v.1.15,2013-01-29 01:35:00,
2013-01-28 20:41:00,46.3,43.5,30.36,NE,55,0.0,0.0,90,0.00,,,0.00,Wunderground v.1.15,2013-01-29 01:41:00,
2013-01-28 20:50:00,46.5,44.3,30.36,NE,55,0.0,0.0,92,0.00,,,0.00,Wunderground v.1.15,2013-01-29 01:50:00,
2013-01-28 20:56:00,46.5,44.3,30.36,NE,55,0.0,0.0,92,0.00,,,0.00,Wunderground v.1.15,2013-01-29 01:56:00,
2013-01-28 21:01:00,46.7,44.5,30.36,NE,55,0.0,0.0,92,0.00,,,0.00,Wunderground v.1.15,2013-01-29 02:01:00,
2013-01-28 21:06:00,46.6,44.4,30.36,NE,55,0.0,0.0,92,0.00,,,0.00,Wunderground v.1.15,2013-01-29 02:06:00,
2013-01-28 21:12:00,46.6,44.4,30.36,NE,55,0.0,0.0,92,0.00,,,0.00,Wunderground v.1.15,2013-01-29 02:12:00,
2013-01-28 21:17:00,46.5,44.3,30.36,NE,55,0.0,0.0,92,0.00,,,0.00,Wunderground v.1.15,2013-01-29 02:17:00,
2013-01-28 21:23:00,46.5,44.6,30.36,NE,55,0.0,0.0,93,0.00,,,0.00,Wunderground v.1.15,2013-01-29 02:23:00,
2013-01-28 21:29:00,46.4,44.2,30.36,NE,55,0.0,0.0,92,0.00,,,0.00,Wunderground v.1.15,2013-01-29 02:29:00,
2013-01-28 21:35:00,46.3,44.1,30.36,NE,55,0.0,0.0,92,0.00,,,0.00,Wunderground v.1.15,2013-01-29 02:35:00,
2013-01-28 21:40:00,46.1,43.9,30.36,NNW,333,0.0,0.0,92,0.00,,,0.00,Wunderground v.1.15,2013-01-29 02:40:00,
2013-01-28 21:51:00,45.7,43.5,30.35,NNW,333,0.0,0.0,92,0.00,,,0.00,Wunderground v.1.15,2013-01-29 02:51:00,
2013-01-28 21:56:00,45.3,43.1,30.35,NNW,333,0.0,2.0,92,0.00,,,0.00,Wunderground v.1.15,2013-01-29 02:56:00,
2013-01-28 22:01:00,44.9,42.7,30.35,NNW,333,1.0,1.0,92,0.00,,,0.00,Wunderground v.1.15,2013-01-29 03:01:00,
2013-01-28 22:07:00,44.5,42.3,30.35,NNW,333,1.0,1.0,92,0.00,,,0.00,Wunderground v.1.15,2013-01-29 03:07:00,
2013-01-28 22:13:00,44.2,42.3,30.34,NNW,333,1.0,2.0,93,0.00,,,0.00,Wunderground v.1.15,2013-01-29 03:13:00,
2013-01-28 22:18:00,44.1,42.2,30.34,NNW,333,1.0,2.0,93,0.00,,,0.00,Wunderground v.1.15,2013-01-29 03:18:00,
2013-01-28 22:23:00,44.3,42.7,30.35,NNW,333,0.0,1.0,94,0.00,,,0.00,Wunderground v.1.15,2013-01-29 03:23:00,
2013-01-28 22:29:00,44.4,42.8,30.35,NNW,333,0.0,1.0,94,0.00,,,0.00,Wunderground v.1.15,2013-01-29 03:29:00,
2013-01-28 22:34:00,44.2,42.3,30.34,NNW,333,0.0,0.0,93,0.00,,,0.00,Wunderground v.1.15,2013-01-29 03:34:00,
2013-01-28 22:40:00,43.8,41.9,30.34,NNW,333,0.0,1.0,93,0.00,,,0.00,Wunderground v.1.15,2013-01-29 03:40:00,
2013-01-28 22:51:00,43.4,41.5,30.34,NNW,333,0.0,0.0,93,0.00,,,0.00,Wunderground v.1.15,2013-01-29 03:51:00,
2013-01-28 22:56:00,43.7,42.1,30.34,NNW,333,0.0,2.0,94,0.00,,,0.00,Wunderground v.1.15,2013-01-29 03:56:00,
2013-01-28 23:01:00,43.8,42.2,30.34,NW,324,1.0,1.0,94,0.00,,,0.00,Wunderground v.1.15,2013-01-29 04:01:00,
2013-01-28 23:06:00,43.8,42.2,30.34,NW,324,1.0,2.0,94,0.00,,,0.00,Wunderground v.1.15,2013-01-29 04:06:00,
2013-01-28 23:12:00,43.9,42.6,30.34,NW,321,1.0,3.0,95,0.00,,,0.00,Wunderground v.1.15,2013-01-29 04:12:00,
2013-01-28 23:17:00,44.5,43.2,30.34,NW,322,1.0,3.0,95,0.00,,,0.00,Wunderground v.1.15,2013-01-29 04:17:00,
2013-01-28 23:22:00,44.8,43.5,30.34,NW,316,1.0,3.0,95,0.00,,,0.00,Wunderground v.1.15,2013-01-29 04:22:00,
2013-01-28 23:28:00,44.9,43.6,30.34,NW,316,1.0,3.0,95,0.00,,,0.00,Wunderground v.1.15,2013-01-29 04:28:00,
2013-01-28 23:33:00,44.8,43.5,30.34,NW,316,1.0,1.0,95,0.00,,,0.00,Wunderground v.1.15,2013-01-29 04:33:00,
2013-01-28 23:39:00,44.5,42.9,30.34,NW,316,0.0,1.0,94,0.00,,,0.00,Wunderground v.1.15,2013-01-29 04:39:00,
2013-01-28 23:45:00,44.5,42.9,30.34,NW,316,0.0,1.0,94,0.00,,,0.00,Wunderground v.1.15,2013-01-29 04:45:00,
2013-01-28 23:51:00,44.4,42.8,30.34,NW,316,0.0,0.0,94,0.00,,,0.00,Wunderground v.1.15,2013-01-29 04:51:00,
2013-01-28 23:56:00,44.2,42.6,30.34,NW,316,0.0,3.0,94,0.00,,,0.00,Wunderground v.1.15,2013-01-29 04:56:00,